Time;durP1;ratioP1;P1;durP2;ratioP2;P2;SDS_P1;SDS_P2;PMS_P1;PMS_P2;Temp;Humidity;BMP_temperature;BMP_pressure;BME280_temperature;BME280_humidity;BME280_pressure;Samples;Min_cycle;Max_cycle;Signal;HPM_P1;HPM_P2
2021/09/14 00:01:28;;;;;;;22.40;14.02;;;;;;;;;;5065608;28;22901;-76
2021/09/14 00:03:53;;;;;;;27.98;13.77;;;;;;;;;;5064968;28;20494;-76
2021/09/14 00:06:18;;;;;;;24.50;14.30;;;;;;;;;;5076095;28;20033;-77
2021/09/14 00:08:44;;;;;;;27.85;13.70;;;;;;;;;;5066185;28;20036;-76
2021/09/14 00:11:10;;;;;;;25.65;13.82;;;;;;;;;;5060937;28;20032;-76
2021/09/14 00:13:36;;;;;;;22.75;13.63;;;;;;;;;;5043042;28;20043;-77
2021/09/14 00:16:02;;;;;;;26.77;14.15;;;;;;;;;;5076982;28;20032;-77
2021/09/14 00:18:27;;;;;;;29.95;13.07;;;;;;;;;;5078302;28;20079;-77
2021/09/14 00:20:53;;;;;;;32.58;14.68;;;;;;;;;;5066205;28;20105;-77
2021/09/14 00:23:18;;;;;;;25.55;14.07;;;;;;;;;;5062257;28;20055;-76
2021/09/14 00:25:44;;;;;;;31.30;15.35;;;;;;;;;;5049917;28;23010;-76
2021/09/14 00:28:09;;;;;;;23.20;14.00;;;;;;;;;;5065654;28;20036;-76
2021/09/14 00:30:35;;;;;;;28.15;14.90;;;;;;;;;;5065795;28;20170;-76
2021/09/14 00:33:00;;;;;;;26.88;14.50;;;;;;;;;;5080086;28;21221;-76
2021/09/14 00:35:26;;;;;;;29.08;14.65;;;;;;;;;;5063007;28;20554;-76
2021/09/14 00:37:51;;;;;;;28.08;14.70;;;;;;;;;;5066160;28;20157;-77
2021/09/14 00:40:17;;;;;;;22.30;14.13;;;;;;;;;;5080520;28;20167;-77
2021/09/14 00:42:42;;;;;;;29.23;15.15;;;;;;;;;;5064624;28;20185;-77
2021/09/14 00:45:08;;;;;;;29.98;15.05;;;;;;;;;;5048458;28;20040;-77
2021/09/14 00:47:34;;;;;;;26.33;14.13;;;;;;;;;;5066378;28;20461;-77
2021/09/14 00:50:04;;;;;;;28.95;15.80;;;;;;;;;;5081673;28;20043;-76
2021/09/14 00:52:30;;;;;;;30.83;16.55;;;;;;;;;;5082407;28;20051;-76
2021/09/14 00:54:55;;;;;;;27.67;16.10;;;;;;;;;;5061127;28;20482;-76
2021/09/14 00:57:21;;;;;;;28.40;15.30;;;;;;;;;;5062878;28;20029;-76
2021/09/14 00:59:46;;;;;;;33.72;16.60;;;;;;;;;;5045813;28;20032;-76
2021/09/14 01:02:12;;;;;;;31.73;17.08;;;;;;;;;;5059849;28;20170;-77
2021/09/14 01:04:38;;;;;;;33.25;15.75;;;;;;;;;;5061801;28;20020;-76
2021/09/14 01:07:04;;;;;;;34.47;16.33;;;;;;;;;;5061264;28;20032;-77
2021/09/14 01:09:32;;;;;;;25.75;15.40;;;;;;;;;;5060680;28;20032;-77
2021/09/14 01:11:58;;;;;;;26.98;15.70;;;;;;;;;;5061010;28;20064;-77
2021/09/14 01:14:23;;;;;;;27.13;15.15;;;;;;;;;;5061114;28;20035;-76
2021/09/14 01:16:49;;;;;;;27.00;16.45;;;;;;;;;;5059929;28;20041;-77
2021/09/14 01:19:14;;;;;;;31.95;15.45;;;;;;;;;;5062702;28;20040;-76
2021/09/14 01:21:40;;;;;;;28.25;15.60;;;;;;;;;;5061166;28;20029;-76
2021/09/14 01:24:06;;;;;;;32.17;15.75;;;;;;;;;;5062026;28;20178;-76
2021/09/14 01:26:32;;;;;;;26.67;15.77;;;;;;;;;;5064588;28;20024;-76
2021/09/14 01:28:58;;;;;;;31.60;15.63;;;;;;;;;;5065486;28;20028;-76
2021/09/14 01:31:23;;;;;;;27.88;15.82;;;;;;;;;;5064552;28;20512;-76
2021/09/14 01:33:51;;;;;;;28.73;16.92;;;;;;;;;;5061589;28;20036;-77
2021/09/14 01:36:18;;;;;;;26.70;15.55;;;;;;;;;;5076964;28;20051;-76
2021/09/14 01:38:44;;;;;;;37.00;17.58;;;;;;;;;;5079887;28;20036;-76
2021/09/14 01:41:10;;;;;;;26.10;15.75;;;;;;;;;;5066792;28;20417;-76
2021/09/14 01:43:36;;;;;;;31.63;17.50;;;;;;;;;;5064885;28;20028;-77
2021/09/14 01:46:04;;;;;;;32.67;17.38;;;;;;;;;;5065400;28;20040;-76
2021/09/14 01:48:30;;;;;;;30.30;19.27;;;;;;;;;;5045477;28;20032;-76
2021/09/14 01:50:55;;;;;;;37.35;17.45;;;;;;;;;;5059731;28;20401;-76
2021/09/14 01:53:25;;;;;;;36.40;18.65;;;;;;;;;;5064933;28;20136;-76
2021/09/14 01:55:51;;;;;;;30.75;17.65;;;;;;;;;;5066911;28;20031;-76
2021/09/14 01:58:18;;;;;;;33.53;17.20;;;;;;;;;;5079950;28;20646;-76
2021/09/14 02:03:31;;;;;;;32.65;16.63;;;;;;;;;;5064342;28;20032;-76
2021/09/14 02:33:44;;;;;;;31.58;18.17;;;;;;;;;;5065055;28;20032;-76
2021/09/14 02:38:30;;;;;;;34.22;17.75;;;;;;;;;;5065229;28;20067;-76
2021/09/14 02:41:21;;;;;;;;;;;;;;;;;;5067498;28;20582;-76
2021/09/14 03:00:18;;;;;;;33.70;18.00;;;;;;;;;;5067044;28;20071;-76
2021/09/14 03:02:44;;;;;;;35.28;18.92;;;;;;;;;;5068312;28;20048;-76
2021/09/14 03:05:11;;;;;;;34.92;19.80;;;;;;;;;;5068412;28;20085;-76
2021/09/14 03:07:37;;;;;;;36.60;19.20;;;;;;;;;;5058744;28;20028;-77
2021/09/14 03:10:03;;;;;;;32.95;19.52;;;;;;;;;;5084219;28;20039;-77
2021/09/14 03:12:28;;;;;;;31.52;19.38;;;;;;;;;;5066700;28;20489;-76
2021/09/14 03:14:53;;;;;;;38.53;19.42;;;;;;;;;;5040218;28;20036;-77
2021/09/14 03:17:19;;;;;;;39.47;20.10;;;;;;;;;;5053343;28;20005;-76
2021/09/14 03:19:44;;;;;;;33.72;19.63;;;;;;;;;;5050044;28;20032;-77
2021/09/14 03:22:10;;;;;;;37.10;19.38;;;;;;;;;;5067385;28;20036;-76
2021/09/14 03:24:35;;;;;;;32.42;19.17;;;;;;;;;;5052089;28;20056;-76
2021/09/14 03:27:01;;;;;;;39.00;20.05;;;;;;;;;;5067714;28;20033;-76
2021/09/14 03:29:27;;;;;;;36.67;19.58;;;;;;;;;;5067354;28;20493;-76
2021/09/14 03:31:52;;;;;;;35.63;20.40;;;;;;;;;;5066579;28;20528;-76
2021/09/14 03:34:18;;;;;;;31.25;20.10;;;;;;;;;;5066406;28;20032;-76
2021/09/14 03:36:43;;;;;;;37.20;19.33;;;;;;;;;;5066494;28;20040;-76
2021/09/14 03:39:09;;;;;;;35.70;19.55;;;;;;;;;;5084091;28;20109;-76
2021/09/14 03:41:35;;;;;;;33.13;18.48;;;;;;;;;;5068462;28;20035;-76
2021/09/14 03:44:00;;;;;;;33.97;18.58;;;;;;;;;;5067298;28;22541;-76
2021/09/14 03:46:26;;;;;;;43.35;20.23;;;;;;;;;;5052012;28;20553;-76
2021/09/14 03:48:51;;;;;;;34.13;17.92;;;;;;;;;;5067152;28;20032;-76
2021/09/14 03:51:17;;;;;;;31.50;18.08;;;;;;;;;;5067851;28;20086;-76
2021/09/14 03:53:42;;;;;;;33.10;18.20;;;;;;;;;;5066988;28;20025;-76
2021/09/14 03:56:08;;;;;;;27.50;17.70;;;;;;;;;;5075525;28;20121;-76
2021/09/14 03:58:33;;;;;;;30.20;16.85;;;;;;;;;;5062900;28;20115;-77
2021/09/14 04:00:59;;;;;;;35.17;17.80;;;;;;;;;;5081633;28;20032;-77
2021/09/14 04:03:36;;;;;;;32.45;16.88;;;;;;;;;;5065468;28;20508;-76
2021/09/14 04:11:14;;;;;;;25.17;16.23;;;;;;;;;;5079046;28;20036;-76
2021/09/14 04:13:40;;;;;;;30.33;16.95;;;;;;;;;;5078965;28;20028;-76
2021/09/14 04:16:05;;;;;;;32.10;16.88;;;;;;;;;;5079203;28;20060;-76
2021/09/14 04:18:31;;;;;;;29.73;16.70;;;;;;;;;;5065210;28;20115;-76
2021/09/14 04:20:56;;;;;;;29.27;16.20;;;;;;;;;;5067041;28;20060;-76
2021/09/14 04:23:22;;;;;;;28.58;17.40;;;;;;;;;;5075754;28;20053;-76
2021/09/14 04:25:47;;;;;;;36.33;16.88;;;;;;;;;;5062718;28;20074;-76
2021/09/14 04:28:13;;;;;;;26.58;16.40;;;;;;;;;;5063604;28;20033;-76
2021/09/14 04:30:39;;;;;;;28.17;16.00;;;;;;;;;;5062422;28;20565;-76
2021/09/14 04:33:05;;;;;;;27.55;14.95;;;;;;;;;;5063054;28;20120;-77
2021/09/14 04:35:30;;;;;;;27.55;14.63;;;;;;;;;;5063543;28;20108;-77
2021/09/14 04:37:56;;;;;;;26.83;15.10;;;;;;;;;;5062913;28;20386;-76
2021/09/14 04:40:21;;;;;;;27.00;14.93;;;;;;;;;;5076346;28;20021;-77
2021/09/14 04:42:47;;;;;;;26.98;15.07;;;;;;;;;;5078492;28;20048;-76
2021/09/14 04:45:12;;;;;;;24.85;14.73;;;;;;;;;;5063944;28;20111;-76
2021/09/14 04:47:38;;;;;;;22.92;13.90;;;;;;;;;;5061147;28;20612;-77
2021/09/14 04:50:04;;;;;;;29.30;16.95;;;;;;;;;;5065144;28;20115;-76
2021/09/14 04:52:30;;;;;;;23.60;14.43;;;;;;;;;;5066022;28;20035;-76
2021/09/14 04:54:55;;;;;;;23.67;14.07;;;;;;;;;;5065203;28;20592;-76
2021/09/14 04:57:21;;;;;;;21.27;14.52;;;;;;;;;;5059379;28;20570;-77
2021/09/14 04:59:46;;;;;;;25.70;14.05;;;;;;;;;;5049338;28;20028;-76
2021/09/14 05:02:11;;;;;;;23.02;13.63;;;;;;;;;;5049484;28;20033;-76
2021/09/14 05:04:37;;;;;;;22.67;13.18;;;;;;;;;;5063317;28;20469;-76
2021/09/14 05:07:03;;;;;;;23.73;13.40;;;;;;;;;;5062446;28;20035;-76
2021/09/14 05:09:28;;;;;;;21.90;13.90;;;;;;;;;;5063635;28;20020;-76
2021/09/14 05:11:54;;;;;;;18.67;13.10;;;;;;;;;;5060896;28;20686;-77
2021/09/14 05:14:19;;;;;;;19.65;12.38;;;;;;;;;;5045933;28;20028;-76
2021/09/14 05:16:45;;;;;;;25.30;13.25;;;;;;;;;;5063463;28;20037;-76
2021/09/14 05:19:11;;;;;;;25.52;14.10;;;;;;;;;;5065684;28;20505;-77
2021/09/14 05:21:46;;;;;;;23.13;14.13;;;;;;;;;;5062119;28;20594;-76
2021/09/14 05:24:12;;;;;;;20.95;14.75;;;;;;;;;;5058703;28;20053;-76
2021/09/14 05:26:40;;;;;;;21.85;13.23;;;;;;;;;;5065338;28;20544;-76
2021/09/14 05:29:05;;;;;;;22.90;13.93;;;;;;;;;;5065441;28;20039;-77
2021/09/14 05:31:33;;;;;;;21.90;12.93;;;;;;;;;;5063061;28;20025;-76
2021/09/14 05:33:59;;;;;;;23.35;13.70;;;;;;;;;;5052499;28;20060;-76
2021/09/14 05:36:24;;;;;;;19.58;12.57;;;;;;;;;;5065440;28;20050;-76
2021/09/14 05:38:50;;;;;;;23.63;14.43;;;;;;;;;;5050588;28;20029;-76
2021/09/14 05:41:16;;;;;;;22.85;14.43;;;;;;;;;;5047566;28;20032;-76
2021/09/14 05:43:41;;;;;;;23.42;13.68;;;;;;;;;;5066019;28;20028;-76
2021/09/14 05:46:06;;;;;;;20.67;12.00;;;;;;;;;;5062868;28;20481;-76
2021/09/14 05:48:32;;;;;;;21.83;12.93;;;;;;;;;;5063434;28;20115;-76
2021/09/14 05:50:58;;;;;;;20.13;12.65;;;;;;;;;;5062525;28;20031;-77
2021/09/14 05:53:23;;;;;;;24.17;12.85;;;;;;;;;;5058656;28;20025;-77
2021/09/14 05:55:48;;;;;;;22.58;14.15;;;;;;;;;;5064817;28;20024;-77
2021/09/14 05:58:14;;;;;;;27.33;13.55;;;;;;;;;;5065942;28;20033;-76
2021/09/14 06:00:39;;;;;;;20.15;11.63;;;;;;;;;;5030268;28;20672;-77
2021/09/14 06:03:05;;;;;;;19.42;12.65;;;;;;;;;;5062666;28;20032;-76
2021/09/14 06:05:31;;;;;;;20.85;12.60;;;;;;;;;;5063715;28;20044;-76
2021/09/14 06:07:56;;;;;;;21.33;12.05;;;;;;;;;;5046526;28;20112;-76
2021/09/14 06:10:22;;;;;;;22.35;12.43;;;;;;;;;;5064028;28;20075;-76
2021/09/14 06:12:47;;;;;;;22.23;12.52;;;;;;;;;;5054997;28;20459;-76
2021/09/14 06:15:13;;;;;;;22.27;13.65;;;;;;;;;;5059450;28;20032;-76
2021/09/14 06:17:42;;;;;;;19.08;11.63;;;;;;;;;;5064401;28;20083;-77
2021/09/14 06:20:08;;;;;;;22.63;12.25;;;;;;;;;;5060935;28;20045;-76
2021/09/14 06:22:34;;;;;;;23.08;12.15;;;;;;;;;;5062562;28;20489;-77
2021/09/14 06:24:59;;;;;;;20.70;12.30;;;;;;;;;;5054085;28;20489;-77
2021/09/14 06:27:25;;;;;;;19.40;12.25;;;;;;;;;;5061042;28;20060;-76
2021/09/14 06:29:51;;;;;;;19.73;12.85;;;;;;;;;;5029530;28;20489;-75
2021/09/14 06:32:16;;;;;;;22.35;12.60;;;;;;;;;;5065676;28;20036;-75
2021/09/14 06:34:42;;;;;;;19.15;12.48;;;;;;;;;;5047543;28;20032;-75
2021/09/14 06:37:08;;;;;;;25.20;12.38;;;;;;;;;;5064010;28;20111;-75
2021/09/14 06:39:35;;;;;;;21.40;12.13;;;;;;;;;;5062666;28;20041;-74
2021/09/14 06:42:00;;;;;;;22.08;11.77;;;;;;;;;;5061460;28;20039;-75
2021/09/14 06:44:26;;;;;;;19.10;12.70;;;;;;;;;;5063246;28;20028;-77
2021/09/14 06:46:51;;;;;;;17.77;11.35;;;;;;;;;;5065480;28;20029;-74
2021/09/14 06:49:17;;;;;;;20.23;12.18;;;;;;;;;;5066323;28;20440;-74
2021/09/14 06:51:43;;;;;;;19.33;12.15;;;;;;;;;;5066195;28;20048;-75
2021/09/14 06:54:09;;;;;;;22.45;11.88;;;;;;;;;;5049158;28;20075;-75
2021/09/14 06:56:34;;;;;;;17.33;11.07;;;;;;;;;;5073091;28;20038;-75
2021/09/14 06:58:59;;;;;;;21.30;11.93;;;;;;;;;;5075777;28;20040;-75
2021/09/14 07:01:26;;;;;;;23.48;13.15;;;;;;;;;;5082345;28;20545;-75
2021/09/14 07:03:53;;;;;;;22.05;12.55;;;;;;;;;;5066345;28;20024;-75
2021/09/14 07:06:19;;;;;;;20.80;11.20;;;;;;;;;;5060153;28;20044;-75
2021/09/14 07:08:44;;;;;;;16.40;11.63;;;;;;;;;;5081826;28;20020;-75
2021/09/14 07:11:10;;;;;;;19.90;12.23;;;;;;;;;;5060871;28;20040;-74
2021/09/14 07:13:36;;;;;;;23.25;12.00;;;;;;;;;;5080248;28;20077;-75
2021/09/14 07:16:01;;;;;;;21.80;11.63;;;;;;;;;;5062089;28;20530;-77
2021/09/14 07:18:27;;;;;;;19.33;11.13;;;;;;;;;;5047675;28;20108;-74
2021/09/14 07:20:52;;;;;;;23.60;11.73;;;;;;;;;;5064331;28;20455;-77
2021/09/14 07:23:20;;;;;;;29.33;12.95;;;;;;;;;;5064847;28;20324;-76
2021/09/14 07:25:45;;;;;;;32.45;13.45;;;;;;;;;;5062323;28;20047;-76
2021/09/14 07:28:12;;;;;;;26.85;11.70;;;;;;;;;;5077404;28;20112;-76
2021/09/14 07:30:38;;;;;;;19.55;11.55;;;;;;;;;;5082296;28;20052;-77
2021/09/14 07:33:04;;;;;;;21.60;11.82;;;;;;;;;;5064571;28;20623;-76
2021/09/14 07:35:30;;;;;;;27.60;13.18;;;;;;;;;;5075428;28;20150;-77
2021/09/14 07:37:56;;;;;;;22.88;13.00;;;;;;;;;;5067072;28;20525;-76
2021/09/14 07:40:22;;;;;;;25.20;12.88;;;;;;;;;;5062379;28;20556;-76
2021/09/14 07:42:48;;;;;;;26.77;12.90;;;;;;;;;;5067353;28;20111;-77
2021/09/14 07:45:13;;;;;;;22.13;11.82;;;;;;;;;;5048023;28;20035;-77
2021/09/14 07:47:39;;;;;;;19.85;11.98;;;;;;;;;;5061471;28;20089;-77
2021/09/14 07:50:05;;;;;;;27.40;12.27;;;;;;;;;;5066202;28;20024;-77
2021/09/14 07:52:30;;;;;;;20.60;11.70;;;;;;;;;;5059781;28;20032;-77
2021/09/14 07:54:56;;;;;;;25.73;12.00;;;;;;;;;;5066214;28;20551;-77
2021/09/14 07:57:21;;;;;;;18.98;12.35;;;;;;;;;;5064276;28;20035;-77
2021/09/14 07:59:47;;;;;;;23.95;11.45;;;;;;;;;;5065327;28;20032;-77
2021/09/14 08:02:12;;;;;;;17.13;11.15;;;;;;;;;;5068116;28;20039;-78
2021/09/14 08:04:38;;;;;;;19.90;11.40;;;;;;;;;;5065826;28;20066;-77
2021/09/14 08:07:04;;;;;;;22.85;12.13;;;;;;;;;;5050504;28;20449;-76
2021/09/14 08:09:30;;;;;;;26.70;11.95;;;;;;;;;;5055825;28;20020;-76
2021/09/14 08:11:57;;;;;;;24.98;11.88;;;;;;;;;;5080983;28;20086;-77
2021/09/14 08:14:23;;;;;;;23.83;10.98;;;;;;;;;;5065593;28;20028;-77
2021/09/14 08:16:49;;;;;;;22.38;11.63;;;;;;;;;;5064306;28;20035;-77
2021/09/14 08:19:14;;;;;;;23.40;10.73;;;;;;;;;;5066300;28;20479;-77
2021/09/14 08:21:40;;;;;;;22.05;10.40;;;;;;;;;;5062531;28;20036;-77
2021/09/14 08:24:10;;;;;;;19.25;10.75;;;;;;;;;;5079742;28;20052;-77
2021/09/14 08:26:36;;;;;;;28.92;11.50;;;;;;;;;;5062988;28;20025;-77
2021/09/14 08:29:02;;;;;;;20.17;10.93;;;;;;;;;;5066562;28;20034;-77
2021/09/14 08:31:28;;;;;;;31.38;10.20;;;;;;;;;;5064004;28;20028;-77
2021/09/14 08:33:54;;;;;;;19.38;10.13;;;;;;;;;;5066901;28;20584;-77
2021/09/14 08:36:19;;;;;;;23.33;9.88;;;;;;;;;;5080968;28;20029;-77
2021/09/14 08:38:45;;;;;;;26.95;9.60;;;;;;;;;;5064250;28;20091;-77
2021/09/14 08:41:15;;;;;;;21.02;8.27;;;;;;;;;;5079393;28;20032;-77
2021/09/14 08:43:44;;;;;;;12.75;8.50;;;;;;;;;;5060192;28;20032;-77
2021/09/14 08:46:11;;;;;;;17.45;7.68;;;;;;;;;;5061271;28;20761;-77
2021/09/14 08:48:36;;;;;;;20.35;9.55;;;;;;;;;;5077700;28;20079;-77
2021/09/14 08:51:03;;;;;;;13.27;8.52;;;;;;;;;;5066335;28;20056;-77
2021/09/14 08:53:31;;;;;;;18.52;8.30;;;;;;;;;;5059165;28;20024;-77
2021/09/14 08:55:57;;;;;;;19.58;8.70;;;;;;;;;;5055775;28;20028;-78
2021/09/14 08:58:22;;;;;;;18.58;9.40;;;;;;;;;;5062376;28;20059;-77
2021/09/14 09:00:48;;;;;;;16.30;8.77;;;;;;;;;;5067550;28;20031;-77
2021/09/14 09:03:21;;;;;;;19.33;9.23;;;;;;;;;;5082758;28;20029;-77
2021/09/14 09:05:47;;;;;;;16.67;8.63;;;;;;;;;;5070531;28;20127;-77
2021/09/14 09:08:23;;;;;;;14.20;8.10;;;;;;;;;;5066602;28;20123;-77
2021/09/14 09:11:08;;;;;;;14.02;7.68;;;;;;;;;;5079892;28;20029;-77
2021/09/14 09:13:47;;;;;;;16.05;7.72;;;;;;;;;;5066232;28;20036;-77
2021/09/14 09:16:24;;;;;;;17.27;7.10;;;;;;;;;;5082832;28;20032;-77
2021/09/14 09:19:01;;;;;;;15.52;7.32;;;;;;;;;;5064104;28;20043;-77
2021/09/14 09:21:32;;;;;;;11.30;6.53;;;;;;;;;;5065490;28;20059;-77
2021/09/14 09:24:00;;;;;;;;;;;;;;;;;;5067308;28;20413;-77
2021/09/14 09:26:44;;;;;;;11.40;5.82;;;;;;;;;;5065446;28;19918;-77
2021/09/14 09:29:12;;;;;;;14.52;6.30;;;;;;;;;;5078214;28;20044;-77
2021/09/14 09:31:44;;;;;;;14.07;5.55;;;;;;;;;;5078415;28;20032;-77
2021/09/14 09:34:11;;;;;;;7.15;4.78;;;;;;;;;;5081063;28;20036;-76
2021/09/14 09:36:40;;;;;;;10.48;4.93;;;;;;;;;;5065909;28;20050;-76
2021/09/14 09:39:08;;;;;;;11.82;4.80;;;;;;;;;;5076127;28;20032;-77
2021/09/14 09:41:38;;;;;;;7.78;5.00;;;;;;;;;;5064028;28;20395;-76
2021/09/14 09:44:13;;;;;;;7.65;3.67;;;;;;;;;;5062715;28;20547;-77
2021/09/14 09:46:39;;;;;;;6.55;4.30;;;;;;;;;;5076802;28;20123;-77
2021/09/14 09:49:06;;;;;;;6.38;4.10;;;;;;;;;;5065378;28;20032;-77
2021/09/14 09:51:33;;;;;;;14.13;5.20;;;;;;;;;;5065033;28;20020;-77
2021/09/14 09:54:00;;;;;;;11.50;3.63;;;;;;;;;;5060622;28;20029;-77
2021/09/14 09:56:26;;;;;;;8.93;3.83;;;;;;;;;;5077699;28;20090;-77
2021/09/14 09:58:51;;;;;;;11.70;4.53;;;;;;;;;;5076329;28;20040;-77
2021/09/14 10:01:23;;;;;;;12.07;5.45;;;;;;;;;;5066049;28;20041;-77
2021/09/14 10:04:07;;;;;;;14.77;6.82;;;;;;;;;;5081497;28;20051;-78
2021/09/14 10:06:39;;;;;;;16.38;8.80;;;;;;;;;;5059511;28;20051;-77
2021/09/14 10:09:05;;;;;;;13.40;8.18;;;;;;;;;;5063019;28;20411;-77
2021/09/14 10:11:32;;;;;;;12.35;7.50;;;;;;;;;;5060354;28;20074;-77
2021/09/14 10:14:11;;;;;;;16.65;8.55;;;;;;;;;;5060680;28;20023;-77
2021/09/14 10:16:48;;;;;;;13.30;7.90;;;;;;;;;;5063086;28;20564;-76
2021/09/14 10:19:26;;;;;;;13.65;8.55;;;;;;;;;;5066243;28;20109;-77
2021/09/14 10:22:06;;;;;;;14.93;9.73;;;;;;;;;;5060609;28;20032;-77
2021/09/14 10:24:34;;;;;;;15.32;8.85;;;;;;;;;;5067330;28;20057;-78
2021/09/14 10:27:13;;;;;;;15.23;8.77;;;;;;;;;;5064607;28;20021;-77
2021/09/14 10:29:42;;;;;;;21.58;8.05;;;;;;;;;;5063095;28;20497;-76
2021/09/14 10:32:13;;;;;;;15.77;8.15;;;;;;;;;;5063801;28;20061;-77
2021/09/14 10:34:51;;;;;;;19.92;8.75;;;;;;;;;;5063864;28;20724;-77
2021/09/14 10:37:17;;;;;;;16.73;8.90;;;;;;;;;;5084801;28;20081;-77
2021/09/14 10:39:44;;;;;;;14.88;8.68;;;;;;;;;;5068180;28;20124;-77
2021/09/14 10:42:21;;;;;;;16.17;8.90;;;;;;;;;;5064683;28;20070;-77
2021/09/14 10:44:51;;;;;;;12.20;8.52;;;;;;;;;;5083632;28;20021;-77
2021/09/14 10:47:19;;;;;;;14.93;9.10;;;;;;;;;;5067167;28;20501;-77
2021/09/14 10:50:01;;;;;;;15.45;8.30;;;;;;;;;;5084005;28;20082;-77
2021/09/14 10:52:50;;;;;;;13.95;8.30;;;;;;;;;;5066906;28;20036;-77
2021/09/14 10:55:18;;;;;;;16.83;8.05;;;;;;;;;;5083935;28;20571;-77
2021/09/14 10:57:45;;;;;;;14.77;7.88;;;;;;;;;;5069592;28;20028;-76
2021/09/14 11:00:14;;;;;;;13.77;8.05;;;;;;;;;;5066914;28;20032;-77
2021/09/14 11:02:39;;;;;;;12.80;7.88;;;;;;;;;;5077637;28;20060;-77
2021/09/14 11:05:06;;;;;;;14.13;7.72;;;;;;;;;;5064243;28;20063;-78
2021/09/14 11:07:32;;;;;;;14.48;7.90;;;;;;;;;;5077541;28;20032;-77
2021/09/14 11:10:01;;;;;;;14.95;7.13;;;;;;;;;;5056718;28;20118;-76
2021/09/14 11:12:30;;;;;;;15.48;8.00;;;;;;;;;;5065735;28;20100;-77
2021/09/14 11:14:58;;;;;;;14.02;8.23;;;;;;;;;;5066903;28;20048;-77
2021/09/14 11:17:29;;;;;;;12.73;7.55;;;;;;;;;;5062948;28;20032;-77
2021/09/14 11:19:55;;;;;;;12.98;7.80;;;;;;;;;;5064649;28;20736;-78
2021/09/14 11:22:34;;;;;;;13.55;7.60;;;;;;;;;;5056444;28;20119;-77
2021/09/14 11:25:00;;;;;;;9.57;7.05;;;;;;;;;;5058819;28;20064;-77
2021/09/14 11:27:26;;;;;;;16.50;7.72;;;;;;;;;;5065575;28;20025;-77
2021/09/14 11:29:51;;;;;;;13.07;8.13;;;;;;;;;;5058234;28;20035;-77
2021/09/14 11:32:17;;;;;;;17.42;7.80;;;;;;;;;;5059950;28;20031;-77
2021/09/14 11:34:43;;;;;;;11.63;7.72;;;;;;;;;;5065683;28;20601;-76
2021/09/14 11:37:09;;;;;;;17.98;8.35;;;;;;;;;;5065591;28;20432;-77
2021/09/14 11:39:38;;;;;;;21.13;9.82;;;;;;;;;;5082329;28;20064;-77
2021/09/14 11:42:07;;;;;;;11.57;8.13;;;;;;;;;;5064459;28;20028;-78
2021/09/14 11:44:33;;;;;;;16.95;9.13;;;;;;;;;;5058816;28;20078;-77
2021/09/14 11:47:09;;;;;;;16.45;8.90;;;;;;;;;;5064375;28;20493;-76
2021/09/14 11:49:34;;;;;;;20.00;9.15;;;;;;;;;;5064431;28;20039;-76
2021/09/14 11:52:02;;;;;;;12.27;8.27;;;;;;;;;;5064072;28;20107;-77
2021/09/14 11:54:36;;;;;;;14.95;9.10;;;;;;;;;;5080409;28;20036;-77
2021/09/14 11:57:03;;;;;;;14.30;8.48;;;;;;;;;;5080404;28;20036;-76
2021/09/14 11:59:37;;;;;;;17.77;8.93;;;;;;;;;;5065415;28;20468;-77
2021/09/14 12:02:04;;;;;;;14.20;8.88;;;;;;;;;;5080396;28;20066;-77
2021/09/14 12:04:29;;;;;;;15.40;8.18;;;;;;;;;;5067245;28;20016;-76
2021/09/14 12:06:58;;;;;;;17.33;8.55;;;;;;;;;;5064502;28;20032;-76
2021/09/14 12:09:30;;;;;;;16.20;8.68;;;;;;;;;;5064120;28;20398;-77
2021/09/14 12:11:59;;;;;;;;;;;;;;;;;;5081261;28;20026;-77
2021/09/14 12:14:26;;;;;;;12.38;7.88;;;;;;;;;;5064078;28;19976;-76
2021/09/14 12:16:58;;;;;;;15.35;8.10;;;;;;;;;;5060697;28;20032;-77
2021/09/14 12:19:23;;;;;;;16.88;8.18;;;;;;;;;;5064698;28;20497;-76
2021/09/14 12:21:49;;;;;;;13.02;7.70;;;;;;;;;;5075541;28;20033;-76
2021/09/14 12:24:14;;;;;;;12.45;7.75;;;;;;;;;;5078555;28;20554;-77
2021/09/14 12:26:41;;;;;;;18.58;6.90;;;;;;;;;;5069565;28;20071;-76
2021/09/14 12:29:09;;;;;;;11.77;6.55;;;;;;;;;;5066472;28;20081;-77
2021/09/14 12:31:35;;;;;;;14.38;6.30;;;;;;;;;;5064791;28;20031;-77
2021/09/14 12:34:01;;;;;;;9.57;6.78;;;;;;;;;;5060250;28;20600;-77
2021/09/14 12:36:27;;;;;;;15.48;6.95;;;;;;;;;;5081730;28;20032;-77
2021/09/14 12:38:53;;;;;;;11.25;6.00;;;;;;;;;;5063847;28;20116;-76
2021/09/14 12:41:19;;;;;;;10.02;6.47;;;;;;;;;;5063533;28;20517;-77
2021/09/14 12:43:45;;;;;;;9.75;5.85;;;;;;;;;;5067760;28;20029;-77
2021/09/14 12:46:11;;;;;;;9.55;5.63;;;;;;;;;;5060404;28;20028;-74
2021/09/14 12:48:37;;;;;;;11.73;6.40;;;;;;;;;;5059671;28;20044;-73
2021/09/14 12:51:03;;;;;;;8.27;5.70;;;;;;;;;;5076364;28;20498;-76
2021/09/14 12:53:29;;;;;;;10.52;6.15;;;;;;;;;;5062158;28;20000;-77
2021/09/14 12:55:55;;;;;;;9.07;5.68;;;;;;;;;;5066467;28;20457;-77
2021/09/14 12:58:21;;;;;;;13.88;6.10;;;;;;;;;;5063449;28;20059;-77
2021/09/14 13:00:47;;;;;;;14.20;5.68;;;;;;;;;;5066621;28;20055;-77
2021/09/14 13:03:14;;;;;;;12.23;6.15;;;;;;;;;;5064995;28;20033;-76
2021/09/14 13:05:40;;;;;;;10.35;5.97;;;;;;;;;;5061454;28;20063;-76
2021/09/14 13:08:06;;;;;;;8.40;5.80;;;;;;;;;;5065627;28;20032;-77
2021/09/14 13:10:32;;;;;;;9.00;5.38;;;;;;;;;;5058060;28;20032;-76
2021/09/14 13:18:27;;;;;;;26.13;6.53;;;;;;;;;;5061207;28;20519;-77
2021/09/14 13:20:52;;;;;;;18.95;5.95;;;;;;;;;;5064077;28;20111;-76
2021/09/14 13:23:18;;;;;;;14.25;4.80;;;;;;;;;;5063259;28;20515;-76
2021/09/14 13:25:43;;;;;;;10.63;5.03;;;;;;;;;;5061139;28;20062;-76
2021/09/14 13:28:09;;;;;;;17.67;5.47;;;;;;;;;;5062232;28;20039;-76
2021/09/14 13:30:34;;;;;;;11.18;4.85;;;;;;;;;;5064816;28;20412;-77
2021/09/14 13:33:00;;;;;;;9.25;3.90;;;;;;;;;;5062834;28;20025;-76
2021/09/14 13:35:26;;;;;;;10.20;4.97;;;;;;;;;;5065390;28;20036;-76
2021/09/14 13:37:52;;;;;;;11.10;4.30;;;;;;;;;;5064993;28;20115;-76
2021/09/14 13:40:18;;;;;;;12.02;4.45;;;;;;;;;;5081034;28;20085;-78
2021/09/14 13:42:44;;;;;;;7.65;4.00;;;;;;;;;;5032828;28;20485;-76
2021/09/14 13:47:53;;;;;;;21.20;5.22;;;;;;;;;;5056955;28;20039;-76
2021/09/14 13:50:19;;;;;;;14.02;4.95;;;;;;;;;;5064452;28;20140;-76
2021/09/14 13:52:45;;;;;;;12.80;4.57;;;;;;;;;;5051579;28;20043;-77
2021/09/14 13:55:10;;;;;;;8.13;4.07;;;;;;;;;;5070108;28;20485;-78
2021/09/14 13:57:36;;;;;;;10.32;4.70;;;;;;;;;;5081858;28;20457;-77
2021/09/14 14:00:02;;;;;;;12.18;4.97;;;;;;;;;;5060967;28;20125;-75
2021/09/14 14:02:27;;;;;;;4.90;3.80;;;;;;;;;;5064115;28;20055;-74
2021/09/14 14:04:53;;;;;;;9.15;5.13;;;;;;;;;;5066785;28;20048;-78
2021/09/14 14:07:18;;;;;;;6.50;4.22;;;;;;;;;;5066898;28;20037;-76
2021/09/14 14:09:44;;;;;;;7.82;3.85;;;;;;;;;;5051920;28;20040;-78
2021/09/14 14:12:09;;;;;;;7.32;4.07;;;;;;;;;;5073265;28;20021;-76
2021/09/14 14:14:35;;;;;;;6.45;4.53;;;;;;;;;;5060873;28;20574;-77
2021/09/14 14:17:00;;;;;;;8.70;4.80;;;;;;;;;;5050297;28;20041;-79
2021/09/14 14:19:26;;;;;;;8.43;4.53;;;;;;;;;;5083585;28;20159;-77
2021/09/14 14:21:51;;;;;;;9.40;4.43;;;;;;;;;;5067351;28;20405;-78
2021/09/14 14:24:17;;;;;;;5.85;4.28;;;;;;;;;;5065856;28;20060;-77
2021/09/14 14:26:42;;;;;;;6.32;3.78;;;;;;;;;;5066868;28;20673;-77
2021/09/14 14:29:08;;;;;;;9.05;3.88;;;;;;;;;;5067383;28;20055;-77
2021/09/14 14:31:33;;;;;;;7.90;4.32;;;;;;;;;;5084441;28;20555;-77
2021/09/14 14:33:59;;;;;;;6.15;3.85;;;;;;;;;;5064423;28;20021;-78
2021/09/14 14:36:24;;;;;;;6.38;4.25;;;;;;;;;;5067438;28;20060;-77
2021/09/14 14:38:50;;;;;;;7.63;4.22;;;;;;;;;;5078416;28;20025;-77
2021/09/14 14:41:15;;;;;;;10.48;4.07;;;;;;;;;;5068351;28;20037;-77
2021/09/14 14:43:41;;;;;;;8.00;3.60;;;;;;;;;;5066206;28;20078;-76
2021/09/14 14:46:08;;;;;;;6.40;4.32;;;;;;;;;;5081808;28;20044;-77
2021/09/14 14:48:34;;;;;;;8.13;4.43;;;;;;;;;;5080597;28;20119;-77
2021/09/14 14:50:59;;;;;;;10.40;4.35;;;;;;;;;;5065773;28;20505;-76
2021/09/14 14:53:25;;;;;;;8.35;3.90;;;;;;;;;;5083035;28;20016;-76
2021/09/14 14:55:50;;;;;;;6.50;3.95;;;;;;;;;;5060834;28;20039;-78
2021/09/14 14:58:16;;;;;;;7.93;4.25;;;;;;;;;;5066434;28;20051;-78
2021/09/14 15:00:43;;;;;;;6.18;4.22;;;;;;;;;;5065616;28;20032;-77
2021/09/14 15:03:09;;;;;;;9.27;4.28;;;;;;;;;;5065173;28;20025;-77
2021/09/14 15:05:34;;;;;;;6.03;3.92;;;;;;;;;;5076588;28;20063;-76
2021/09/14 15:07:59;;;;;;;8.02;3.75;;;;;;;;;;5076749;28;20036;-76
2021/09/14 15:10:25;;;;;;;6.68;3.83;;;;;;;;;;5067748;28;20025;-77
2021/09/14 15:12:52;;;;;;;4.55;3.45;;;;;;;;;;5066831;28;20024;-77
2021/09/14 15:15:17;;;;;;;10.02;4.53;;;;;;;;;;5068318;28;20116;-76
2021/09/14 15:17:43;;;;;;;6.35;3.83;;;;;;;;;;5066796;28;20665;-76
2021/09/14 15:20:10;;;;;;;6.82;3.80;;;;;;;;;;5064506;28;20039;-76
2021/09/14 15:22:43;;;;;;;7.32;3.63;;;;;;;;;;5059554;28;20024;-77
2021/09/14 15:25:09;;;;;;;7.10;3.90;;;;;;;;;;5076252;28;20033;-77
2021/09/14 15:27:35;;;;;;;5.90;3.80;;;;;;;;;;5065591;28;20146;-77